KEBS/EBS METAR and TAF weather

Enter ICAO airport designator
Station Type Date Time Source
KEBS METAR 2020/09/21 05:15 UTC NOAA

KEBS 210515Z AUTO 17010G15KT 10SM CLR 14/09 A3021 RMK AO2


Station Type Date Time Source
KEBS Decoded METAR 2020/09/21 05:15 UTC NOAA

Webster City, IA, United States (KEBS) 42-26N 093-52W
Sep 21, 2020 - 01:15 AM EDT / 2020.09.21 0515 UTC
Wind: from the S (170 degrees) at 12 MPH (10 KT) gusting to 17 MPH (15 KT):0
Visibility: 10 mile(s):0
Sky conditions: clear
Temperature: 57 F (14 C)
Dew Point: 48 F (9 C)
Relative Humidity: 71%
Pressure (altimeter): 30.21 in. Hg (1023 hPa)
ob: KEBS 210515Z AUTO 17010G15KT 10SM CLR 14/09 A3021 RMK AO2
cycle: 5

Station Type Date Time Source
KEBS TAF UTC NOAA

Error!

Example: see airport list